createdAt,value
2023-02-12T00:01:10.059Z,21.75
2023-02-12T00:03:38.446Z,21.72
2023-02-12T00:06:07.191Z,21.70
2023-02-12T00:08:35.411Z,21.71
2023-02-12T00:11:10.796Z,21.72
2023-02-12T00:13:39.127Z,21.71
2023-02-12T00:16:08.837Z,21.70
2023-02-12T00:18:36.961Z,21.70
2023-02-12T00:21:05.635Z,21.69
2023-02-12T00:23:33.881Z,21.68
2023-02-12T00:26:02.037Z,21.66
2023-02-12T00:28:31.857Z,21.66
2023-02-12T00:30:59.992Z,21.64
2023-02-12T00:33:28.526Z,21.64
2023-02-12T00:35:57.458Z,21.63
2023-02-12T00:38:25.893Z,21.62
2023-02-12T00:40:54.058Z,21.63
2023-02-12T00:43:22.277Z,21.62
2023-02-12T00:45:51.909Z,21.61
2023-02-12T00:48:21.467Z,21.60
2023-02-12T00:50:49.840Z,21.59
2023-02-12T00:53:18.091Z,21.59
2023-02-12T00:55:46.189Z,21.59
2023-02-12T00:58:15.717Z,21.58
2023-02-12T01:00:45.509Z,21.58
2023-02-12T01:03:15.208Z,21.58
2023-02-12T01:05:43.351Z,21.61
2023-02-12T01:08:13.005Z,21.58
2023-02-12T01:10:41.132Z,21.61
2023-02-12T01:13:12.078Z,21.58
2023-02-12T01:15:40.284Z,21.57
2023-02-12T01:18:08.424Z,21.58
2023-02-12T01:20:38.054Z,21.57
2023-02-12T01:23:08.591Z,21.57
2023-02-12T01:25:36.836Z,21.56
2023-02-12T01:28:05.236Z,21.56
2023-02-12T01:30:33.465Z,21.57
2023-02-12T01:33:01.814Z,21.56
2023-02-12T01:35:30.146Z,21.56
2023-02-12T01:37:59.780Z,21.55
2023-02-12T01:40:28.459Z,21.55
2023-02-12T01:42:56.814Z,21.54
2023-02-12T01:45:49.637Z,21.53
2023-02-12T01:48:18.598Z,21.53
2023-02-12T01:50:47.263Z,21.52
2023-02-12T01:53:20.432Z,21.52
2023-02-12T01:55:50.440Z,21.50
2023-02-12T01:58:18.715Z,21.48
2023-02-12T02:00:46.839Z,21.47
2023-02-12T02:03:15.498Z,21.46
2023-02-12T02:05:45.930Z,21.47
2023-02-12T02:08:14.121Z,21.46
2023-02-12T02:10:43.539Z,21.47
2023-02-12T02:13:28.861Z,21.46
2023-02-12T02:15:59.524Z,21.46
2023-02-12T02:18:31.390Z,21.46
2023-02-12T02:21:30.166Z,21.47
2023-02-12T02:24:15.882Z,21.46
2023-02-12T02:27:19.215Z,21.45
2023-02-12T02:30:06.545Z,21.44
2023-02-12T02:32:35.838Z,21.42
2023-02-12T02:35:06.437Z,21.40
2023-02-12T02:37:37.338Z,21.38
2023-02-12T02:40:10.793Z,21.38
2023-02-12T02:42:41.823Z,21.39
2023-02-12T02:45:13.451Z,21.40
2023-02-12T02:47:44.394Z,21.40
2023-02-12T02:50:14.029Z,21.40
2023-02-12T02:52:44.762Z,21.39
2023-02-12T02:55:13.029Z,21.39
2023-02-12T02:57:42.961Z,21.39
2023-02-12T03:00:15.111Z,21.38
2023-02-12T03:02:44.968Z,21.37
2023-02-12T03:05:16.057Z,21.35
2023-02-12T03:07:46.807Z,21.36
2023-02-12T03:10:17.400Z,21.33
2023-02-12T03:12:46.692Z,21.34
2023-02-12T03:15:19.186Z,21.34
2023-02-12T03:17:48.014Z,21.33
2023-02-12T03:20:18.553Z,21.33
2023-02-12T03:22:48.894Z,21.31
2023-02-12T03:25:18.060Z,21.32
2023-02-12T03:27:48.087Z,21.33
2023-02-12T03:30:18.265Z,21.32
2023-02-12T03:32:48.473Z,21.30
2023-02-12T03:35:17.932Z,21.30
2023-02-12T03:37:49.478Z,21.30
2023-02-12T03:40:19.165Z,21.29
2023-02-12T03:42:49.715Z,21.27
2023-02-12T03:45:23.718Z,21.28
2023-02-12T03:47:52.824Z,21.26
2023-02-12T03:50:22.395Z,21.27
2023-02-12T03:52:50.988Z,21.27
2023-02-12T03:55:19.204Z,21.25
2023-02-12T03:57:49.361Z,21.23
2023-02-12T04:00:21.760Z,21.24
2023-02-12T04:02:50.070Z,21.25
2023-02-12T04:05:19.200Z,21.25
2023-02-12T04:07:47.426Z,21.26
2023-02-12T04:10:15.759Z,21.26
2023-02-12T04:12:47.983Z,21.26
2023-02-12T04:15:34.129Z,21.26
2023-02-12T04:18:05.426Z,21.26
2023-02-12T04:20:39.198Z,21.26
2023-02-12T04:23:12.870Z,21.26
2023-02-12T04:25:46.234Z,21.25
2023-02-12T04:28:18.703Z,21.26
2023-02-12T04:30:49.225Z,21.27
2023-02-12T04:33:19.751Z,21.29
2023-02-12T04:35:49.984Z,21.29
2023-02-12T04:38:20.929Z,21.27
2023-02-12T04:40:49.082Z,21.28
2023-02-12T04:43:20.280Z,21.27
2023-02-12T04:45:49.967Z,21.26
2023-02-12T04:48:18.117Z,21.26
2023-02-12T04:50:46.765Z,21.25
2023-02-12T04:53:14.934Z,21.24
2023-02-12T04:55:43.364Z,21.22
2023-02-12T04:58:11.561Z,21.21
2023-02-12T05:00:39.849Z,21.21
2023-02-12T05:05:37.357Z,21.16
2023-02-12T05:08:05.633Z,21.16
2023-02-12T05:13:01.674Z,21.19
2023-02-12T05:15:29.923Z,21.20
2023-02-12T05:17:57.974Z,21.21
2023-02-12T05:20:27.584Z,21.20
2023-02-12T05:22:55.739Z,21.21
2023-02-12T05:25:23.973Z,21.21
2023-02-12T05:27:52.094Z,21.19
2023-02-12T05:30:20.777Z,21.20
2023-02-12T05:32:48.978Z,21.20
2023-02-12T05:35:17.374Z,21.17
2023-02-12T05:37:46.927Z,21.18
2023-02-12T05:42:43.356Z,21.16
2023-02-12T05:45:11.662Z,21.17
2023-02-12T05:47:39.686Z,21.17
2023-02-12T05:50:09.130Z,21.17
2023-02-12T05:52:37.344Z,21.16
2023-02-12T05:55:08.351Z,21.16
2023-02-12T05:57:36.501Z,21.17
2023-02-12T06:00:05.527Z,21.16
2023-02-12T06:02:40.364Z,21.15
2023-02-12T06:05:09.302Z,21.17
2023-02-12T06:07:39.030Z,21.15
2023-02-12T06:10:10.403Z,21.15
2023-02-12T06:12:38.892Z,21.16
2023-02-12T06:15:07.404Z,21.15
2023-02-12T06:17:35.585Z,21.14
2023-02-12T06:20:03.726Z,21.15
2023-02-12T06:22:31.983Z,21.16
2023-02-12T06:25:00.002Z,21.16
2023-02-12T06:27:29.612Z,21.19
2023-02-12T06:32:25.806Z,21.20
2023-02-12T06:34:53.991Z,21.21
2023-02-12T06:37:22.216Z,21.22
2023-02-12T06:39:50.381Z,21.23
2023-02-12T06:42:18.572Z,21.25
2023-02-12T06:44:48.090Z,21.27
2023-02-12T06:47:16.280Z,21.29
2023-02-12T06:49:44.454Z,21.30
2023-02-12T06:52:14.220Z,21.32
2023-02-12T06:54:42.668Z,21.31
2023-02-12T06:57:11.559Z,21.30
2023-02-12T06:59:39.854Z,21.31
2023-02-12T07:02:10.787Z,21.33
2023-02-12T07:04:39.477Z,21.33
2023-02-12T07:07:07.611Z,21.33
2023-02-12T07:09:35.805Z,21.33
2023-02-12T07:12:03.993Z,21.33
2023-02-12T07:14:32.178Z,21.32
2023-02-12T07:17:03.796Z,21.32
2023-02-12T07:19:33.489Z,21.33
2023-02-12T07:22:01.617Z,21.33
2023-02-12T07:24:29.958Z,21.32
2023-02-12T07:26:58.098Z,21.31
2023-02-12T07:29:26.200Z,21.30
2023-02-12T07:31:54.492Z,21.28
2023-02-12T07:34:22.716Z,21.29
2023-02-12T07:36:52.431Z,21.28
2023-02-12T07:39:20.644Z,21.29
2023-02-12T07:41:48.826Z,21.31
2023-02-12T07:44:16.971Z,21.33
2023-02-12T07:46:48.354Z,21.34
2023-02-12T07:49:17.597Z,21.34
2023-02-12T07:51:45.819Z,21.34
2023-02-12T07:54:15.325Z,21.35
2023-02-12T07:56:46.780Z,21.34
2023-02-12T07:59:15.813Z,21.34
2023-02-12T08:01:44.731Z,21.32
2023-02-12T08:04:14.418Z,21.33
2023-02-12T08:06:43.680Z,21.33
2023-02-12T08:09:13.114Z,21.35
2023-02-12T08:11:43.260Z,21.37
2023-02-12T08:14:12.604Z,21.38
2023-02-12T08:16:41.545Z,21.37
2023-02-12T08:19:18.720Z,21.34
2023-02-12T08:21:50.143Z,21.31
2023-02-12T08:24:18.374Z,21.29
2023-02-12T08:26:48.077Z,21.30
2023-02-12T08:29:17.312Z,21.28
2023-02-12T08:31:46.650Z,21.29
2023-02-12T08:34:18.782Z,21.30
2023-02-12T08:36:48.409Z,21.30
2023-02-12T08:39:16.609Z,21.29
2023-02-12T08:41:44.928Z,21.31
2023-02-12T08:44:14.593Z,21.31
2023-02-12T08:46:46.210Z,21.33
2023-02-12T08:49:15.244Z,21.34
2023-02-12T08:51:44.411Z,21.34
2023-02-12T08:54:14.128Z,21.37
2023-02-12T08:56:42.599Z,21.36
2023-02-12T08:59:11.759Z,21.34
2023-02-12T09:01:42.193Z,21.33
2023-02-12T09:04:11.669Z,21.35
2023-02-12T09:06:39.836Z,21.35
2023-02-12T09:09:08.507Z,21.34
2023-02-12T09:11:37.852Z,21.32
2023-02-12T09:14:07.432Z,21.33
2023-02-12T09:16:36.366Z,21.33
2023-02-12T09:19:06.050Z,21.32
2023-02-12T09:21:34.132Z,21.32
2023-02-12T09:24:02.736Z,21.31
2023-02-12T09:26:30.910Z,21.30
2023-02-12T09:28:59.980Z,21.30
2023-02-12T09:31:29.588Z,21.30
2023-02-12T09:34:00.422Z,21.31
2023-02-12T09:36:30.181Z,21.32
2023-02-12T09:38:59.523Z,21.32
2023-02-12T09:41:48.408Z,21.32
2023-02-12T09:44:19.298Z,21.32
2023-02-12T09:46:49.840Z,21.32
2023-02-12T09:49:23.054Z,21.33
2023-02-12T09:51:54.869Z,21.36
2023-02-12T09:54:24.034Z,21.36
2023-02-12T09:56:53.851Z,21.39
2023-02-12T09:59:27.064Z,21.40
2023-02-12T10:01:55.234Z,21.41
2023-02-12T10:04:23.938Z,21.44
2023-02-12T10:06:59.351Z,21.45
2023-02-12T10:09:35.444Z,21.44
2023-02-12T10:12:06.035Z,21.45
2023-02-12T10:14:57.521Z,21.47
2023-02-12T10:17:31.994Z,21.49
2023-02-12T10:20:22.786Z,21.51
2023-02-12T10:22:58.143Z,21.52
2023-02-12T10:25:28.780Z,21.53
2023-02-12T10:27:57.784Z,21.54
2023-02-12T10:30:27.058Z,21.55
2023-02-12T10:32:57.901Z,21.55
2023-02-12T10:35:26.028Z,21.57
2023-02-12T10:37:57.770Z,21.58
2023-02-12T10:40:28.583Z,21.59
2023-02-12T10:42:58.013Z,21.59
2023-02-12T10:45:27.762Z,21.61
2023-02-12T10:48:03.323Z,21.64
2023-02-12T10:50:39.471Z,21.66
2023-02-12T10:53:13.466Z,21.68
2023-02-12T10:55:41.648Z,21.68
2023-02-12T10:58:19.937Z,21.70
2023-02-12T11:00:48.207Z,21.71
2023-02-12T11:03:21.611Z,21.70
2023-02-12T11:05:49.986Z,21.70
2023-02-12T11:08:35.468Z,21.71
2023-02-12T11:11:09.526Z,21.71
2023-02-12T11:13:37.998Z,21.72
2023-02-12T11:16:06.773Z,21.71
2023-02-12T11:18:36.703Z,21.72
2023-02-12T11:21:06.253Z,21.72
2023-02-12T11:23:38.288Z,21.72
2023-02-12T11:26:08.012Z,21.72
2023-02-12T11:28:37.275Z,21.73
2023-02-12T11:31:06.473Z,21.73
2023-02-12T11:33:35.185Z,21.72
2023-02-12T11:36:07.212Z,21.73
2023-02-12T11:38:39.330Z,21.73
2023-02-12T11:41:22.496Z,21.73
2023-02-12T11:43:52.025Z,21.74
2023-02-12T11:46:21.530Z,21.75
2023-02-12T11:48:49.792Z,21.75
2023-02-12T11:51:20.741Z,21.76
2023-02-12T11:53:51.058Z,21.76
2023-02-12T11:56:19.358Z,21.76
2023-02-12T11:58:47.791Z,21.77
2023-02-12T12:01:19.643Z,21.79
2023-02-12T12:03:53.778Z,21.80
2023-02-12T12:06:29.403Z,21.81
2023-02-12T12:09:05.393Z,21.81
2023-02-12T12:11:38.782Z,21.83
2023-02-12T12:14:10.993Z,21.84
2023-02-12T12:16:59.052Z,21.85
2023-02-12T12:19:58.635Z,21.85
2023-02-12T12:22:37.886Z,21.85
2023-02-12T12:25:11.912Z,21.85
2023-02-12T12:27:59.952Z,21.84
2023-02-12T12:30:37.373Z,21.84
2023-02-12T12:33:07.552Z,21.83
2023-02-12T12:35:40.127Z,21.84
2023-02-12T12:38:09.624Z,21.83
2023-02-12T12:40:44.730Z,21.83
2023-02-12T12:43:14.497Z,21.82
2023-02-12T12:46:08.086Z,21.82
2023-02-12T12:49:03.712Z,21.83
2023-02-12T12:51:42.667Z,21.83
2023-02-12T12:54:25.576Z,21.83
2023-02-12T12:57:04.040Z,21.84
2023-02-12T12:59:43.398Z,21.84
2023-02-12T13:02:43.151Z,21.83
2023-02-12T13:05:48.625Z,21.84
2023-02-12T13:08:22.350Z,21.85
2023-02-12T13:10:51.761Z,21.84
2023-02-12T13:13:26.505Z,21.82
2023-02-12T13:15:57.908Z,21.83
2023-02-12T13:18:33.111Z,21.84
2023-02-12T13:21:05.516Z,21.85
2023-02-12T13:23:38.981Z,21.84
2023-02-12T13:26:11.447Z,21.84
2023-02-12T13:28:42.616Z,21.85
2023-02-12T13:31:40.801Z,21.85
2023-02-12T13:34:01.655Z,21.85
2023-02-12T13:36:30.042Z,21.85
2023-02-12T13:39:01.300Z,21.85
2023-02-12T13:41:29.567Z,21.85
2023-02-12T13:44:07.926Z,21.86
2023-02-12T13:46:42.454Z,21.87
2023-02-12T13:49:17.413Z,21.87
2023-02-12T13:51:46.463Z,21.87
2023-02-12T13:54:29.465Z,21.86
2023-02-12T13:56:58.274Z,21.86
2023-02-12T13:59:46.010Z,21.86
2023-02-12T14:02:46.066Z,21.86
2023-02-12T14:05:32.700Z,21.86
2023-02-12T14:08:03.652Z,21.87
2023-02-12T14:10:33.579Z,21.89
2023-02-12T14:13:16.378Z,21.92
2023-02-12T14:15:46.463Z,21.93
2023-02-12T14:18:26.955Z,21.93
2023-02-12T14:21:45.554Z,21.93
2023-02-12T14:24:52.673Z,21.93
2023-02-12T14:27:42.786Z,21.92
2023-02-12T14:30:30.009Z,21.92
2023-02-12T14:33:15.230Z,21.91
2023-02-12T14:35:43.496Z,21.92
2023-02-12T14:39:00.460Z,21.92
2023-02-12T14:41:37.967Z,21.92
2023-02-12T14:44:45.812Z,21.90
2023-02-12T14:47:46.714Z,21.90
2023-02-12T14:50:19.980Z,21.92
2023-02-12T14:52:53.130Z,21.95
2023-02-12T14:55:27.378Z,21.98
2023-02-12T14:58:00.432Z,22.00
2023-02-12T15:00:30.569Z,22.03
2023-02-12T15:03:02.712Z,22.05
2023-02-12T15:05:33.670Z,22.08
2023-02-12T15:08:03.715Z,22.08
2023-02-12T15:10:36.074Z,22.10
2023-02-12T15:13:10.338Z,22.12
2023-02-12T15:15:41.051Z,22.13
2023-02-12T15:18:13.490Z,22.14
2023-02-12T15:20:46.545Z,22.15
2023-02-12T15:23:33.546Z,22.16
2023-02-12T15:26:01.730Z,22.12
2023-02-12T15:28:33.686Z,22.10
2023-02-12T15:31:02.390Z,22.10
2023-02-12T15:33:32.230Z,22.11
2023-02-12T15:36:01.935Z,22.12
2023-02-12T15:38:32.752Z,22.14
2023-02-12T15:41:01.600Z,22.14
2023-02-12T15:43:31.619Z,22.14
2023-02-12T15:45:59.781Z,22.15
2023-02-12T15:48:31.420Z,22.17
2023-02-12T15:51:04.621Z,22.18
2023-02-12T15:53:32.838Z,22.18
2023-02-12T15:56:02.318Z,22.17
2023-02-12T15:58:32.038Z,22.18
2023-02-12T16:01:02.301Z,22.20
2023-02-12T16:03:31.738Z,22.19
2023-02-12T16:06:03.344Z,22.19
2023-02-12T16:08:31.495Z,22.17
2023-02-12T16:10:59.705Z,22.15
2023-02-12T16:13:30.557Z,22.13
2023-02-12T16:16:06.377Z,22.13
2023-02-12T16:18:34.548Z,22.12
2023-02-12T16:21:08.846Z,22.11
2023-02-12T16:23:37.259Z,22.10
2023-02-12T16:26:05.973Z,22.09
2023-02-12T16:28:34.219Z,22.08
2023-02-12T16:31:09.654Z,22.08
2023-02-12T16:33:45.527Z,22.08
2023-02-12T16:36:17.350Z,22.10
2023-02-12T16:38:46.415Z,22.11
2023-02-12T16:41:32.578Z,22.11
2023-02-12T16:44:22.847Z,22.11
2023-02-12T16:46:51.877Z,22.13
2023-02-12T16:49:21.201Z,22.13
2023-02-12T16:51:50.917Z,22.14
2023-02-12T16:54:31.047Z,22.12
2023-02-12T16:56:59.249Z,22.12
2023-02-12T16:59:27.374Z,22.11
2023-02-12T17:01:59.316Z,22.10
2023-02-12T17:04:27.504Z,22.10
2023-02-12T17:06:57.725Z,22.09
2023-02-12T17:09:26.133Z,22.09
2023-02-12T17:11:54.428Z,22.08
2023-02-12T17:14:22.570Z,22.05
2023-02-12T17:16:50.814Z,22.04
2023-02-12T17:19:18.965Z,22.04
2023-02-12T17:21:51.276Z,22.02
2023-02-12T17:24:22.423Z,22.02
2023-02-12T17:26:51.009Z,22.02
2023-02-12T17:29:19.433Z,22.01
2023-02-12T17:31:48.121Z,22.00
2023-02-12T17:34:16.658Z,22.01
2023-02-12T17:36:44.948Z,22.02
2023-02-12T17:39:13.829Z,22.02
2023-02-12T17:41:44.308Z,22.02
2023-02-12T17:44:15.679Z,22.02
2023-02-12T17:46:45.400Z,22.02
2023-02-12T17:49:13.899Z,22.03
2023-02-12T17:51:42.811Z,22.04
2023-02-12T17:54:11.082Z,22.02
2023-02-12T17:56:39.232Z,22.02
2023-02-12T17:59:08.959Z,22.02
2023-02-12T18:01:37.268Z,22.02
2023-02-12T18:04:05.432Z,22.02
2023-02-12T18:06:33.637Z,22.03
2023-02-12T18:09:02.842Z,22.02
2023-02-12T18:11:32.230Z,22.03
2023-02-12T18:14:00.474Z,22.04
2023-02-12T18:16:31.912Z,22.02
2023-02-12T18:19:01.143Z,22.04
2023-02-12T18:21:29.492Z,22.03
2023-02-12T18:23:58.083Z,22.04
2023-02-12T18:26:26.263Z,22.04
2023-02-12T18:28:55.041Z,22.04
2023-02-12T18:31:23.191Z,22.05
2023-02-12T18:33:52.743Z,22.06
2023-02-12T18:36:21.594Z,22.07
2023-02-12T18:38:50.901Z,22.08
2023-02-12T18:41:19.845Z,22.09
2023-02-12T18:43:47.937Z,22.09
2023-02-12T18:46:17.093Z,22.10
2023-02-12T18:48:45.427Z,22.10
2023-02-12T18:51:16.295Z,22.09
2023-02-12T18:53:44.545Z,22.10
2023-02-12T18:56:12.846Z,22.09
2023-02-12T18:58:41.302Z,22.09
2023-02-12T19:01:15.750Z,22.07
2023-02-12T19:03:43.928Z,22.06
2023-02-12T19:06:12.113Z,22.07
2023-02-12T19:08:41.781Z,22.08
2023-02-12T19:11:10.697Z,22.08
2023-02-12T19:13:39.138Z,22.08
2023-02-12T19:16:08.346Z,22.10
2023-02-12T19:18:36.641Z,22.11
2023-02-12T19:21:07.296Z,22.10
2023-02-12T19:23:35.645Z,22.11
2023-02-12T19:26:06.025Z,22.11
2023-02-12T19:28:35.357Z,22.12
2023-02-12T19:31:10.709Z,22.13
2023-02-12T19:33:39.316Z,22.13
2023-02-12T19:36:08.403Z,22.14
2023-02-12T19:38:36.918Z,22.15
2023-02-12T19:41:07.405Z,22.15
2023-02-12T19:43:35.541Z,22.16
2023-02-12T19:46:03.885Z,22.16
2023-02-12T19:48:31.996Z,22.16
2023-02-12T19:51:00.221Z,22.17
2023-02-12T19:53:28.639Z,22.17
2023-02-12T19:55:57.070Z,22.18
2023-02-12T19:58:26.674Z,22.19
2023-02-12T20:00:55.130Z,22.18
2023-02-12T20:03:26.355Z,22.17
2023-02-12T20:06:01.633Z,22.17
2023-02-12T20:08:30.195Z,22.17
2023-02-12T20:10:58.515Z,22.18
2023-02-12T20:13:28.342Z,22.16
2023-02-12T20:15:56.616Z,22.16
2023-02-12T20:18:24.888Z,22.18
2023-02-12T20:20:53.492Z,22.18
2023-02-12T20:23:21.915Z,22.17
2023-02-12T20:25:50.256Z,22.16
2023-02-12T20:28:18.461Z,22.13
2023-02-12T20:30:48.825Z,22.13
2023-02-12T20:33:17.183Z,22.13
2023-02-12T20:35:45.365Z,22.13
2023-02-12T20:38:13.511Z,22.14
2023-02-12T20:40:41.611Z,22.13
2023-02-12T20:43:09.830Z,22.14
2023-02-12T20:45:37.982Z,22.15
2023-02-12T20:48:07.686Z,22.13
2023-02-12T20:50:36.016Z,22.13
2023-02-12T20:53:06.064Z,22.12
2023-02-12T20:55:34.504Z,22.11
2023-02-12T20:58:02.638Z,22.12
2023-02-12T21:00:30.983Z,22.12
2023-02-12T21:03:03.868Z,22.10
2023-02-12T21:05:34.098Z,22.13
2023-02-12T21:08:02.258Z,22.13
2023-02-12T21:10:30.864Z,22.14
2023-02-12T21:12:59.030Z,22.13
2023-02-12T21:15:27.288Z,22.14
2023-02-12T21:17:55.343Z,22.15
2023-02-12T21:20:23.953Z,22.15
2023-02-12T21:22:53.674Z,22.16
2023-02-12T21:25:21.809Z,22.16
2023-02-12T21:27:49.913Z,22.15
2023-02-12T21:30:18.696Z,22.16
2023-02-12T21:32:47.256Z,22.16
2023-02-12T21:35:15.672Z,22.16
2023-02-12T21:37:43.758Z,22.17
2023-02-12T21:40:14.317Z,22.17
2023-02-12T21:42:42.656Z,22.17
2023-02-12T21:45:11.355Z,22.17
2023-02-12T21:47:39.424Z,22.18
2023-02-12T21:50:08.750Z,22.18
2023-02-12T21:52:36.970Z,22.16
2023-02-12T21:55:05.438Z,22.16
2023-02-12T21:57:35.074Z,22.16
2023-02-12T22:00:03.382Z,22.17
2023-02-12T22:02:40.585Z,22.17
2023-02-12T22:05:09.476Z,22.17
2023-02-12T22:07:37.669Z,22.15
2023-02-12T22:10:08.264Z,22.14
2023-02-12T22:12:38.164Z,22.13
2023-02-12T22:15:07.035Z,22.13
2023-02-12T22:17:35.281Z,22.13
2023-02-12T22:20:03.796Z,22.12
2023-02-12T22:22:32.057Z,22.14
2023-02-12T22:25:00.485Z,22.12
2023-02-12T22:27:28.693Z,22.12
2023-02-12T22:29:58.873Z,22.13
2023-02-12T22:32:27.289Z,22.12
2023-02-12T22:34:55.575Z,22.12
2023-02-12T22:37:23.927Z,22.12
2023-02-12T22:39:52.040Z,22.11
2023-02-12T22:42:20.310Z,22.11
2023-02-12T22:44:48.421Z,22.10
2023-02-12T22:47:18.055Z,22.09
2023-02-12T22:49:46.192Z,22.08
2023-02-12T22:52:14.367Z,22.09
2023-02-12T22:54:42.557Z,22.07
2023-02-12T22:57:10.797Z,22.07
2023-02-12T22:59:38.907Z,22.05
2023-02-12T23:02:07.256Z,22.04
2023-02-12T23:04:37.107Z,22.05
2023-02-12T23:07:05.307Z,22.04
2023-02-12T23:09:33.758Z,22.03
2023-02-12T23:12:02.021Z,22.02
2023-02-12T23:14:30.253Z,22.00
2023-02-12T23:16:58.448Z,21.99
2023-02-12T23:19:26.693Z,21.96
2023-02-12T23:21:56.226Z,21.95
2023-02-12T23:24:25.775Z,21.95
2023-02-12T23:26:54.191Z,21.97
2023-02-12T23:29:22.629Z,21.97
2023-02-12T23:31:50.807Z,21.96
2023-02-12T23:34:19.311Z,21.94
2023-02-12T23:36:47.493Z,21.94
2023-02-12T23:39:17.081Z,21.94
2023-02-12T23:41:45.209Z,21.94
2023-02-12T23:44:13.389Z,21.93
2023-02-12T23:46:41.455Z,21.93
2023-02-12T23:49:09.696Z,21.93
2023-02-12T23:51:37.820Z,21.93
2023-02-12T23:54:05.998Z,21.93
2023-02-12T23:56:36.249Z,21.92
2023-02-12T23:59:04.383Z,21.90
